Monterey, IN (46960)

13:09 EST le 12 février 2016 (GMT -0500)
KINCULVE3 | | Change Station
CLOSE
Current Station
Stations météorologiques personnelles
Location: Culver, IN
Altitude: 791 ft
Stations météo à proximité

Alt. 791 ft 41.23 °N, 86.42 °W | Updated 5 seconds ago

Couvert
Couvert
22.3 ° F
Paraît 9 ° F
N
15.4
Vent Variable Vent de ONO
Gusts 17.5 mph

Aujourd'hui
Haut(e) -- | Bas -- ° F
--% Risque de précip.
Hier
Haut(e) -- | Bas -- ° F
Precip. -- pouce
Pression 30.11 pouce
Visibilité 4.0 Miles terrestres
Nuages Nuageux 1800 ft
Couvert 2600 ft
Refroidissement éolien 9 ° F
Point de rosée 13 ° F
Humidité 67%
Précipitations 0.00 pouce
Profondeur de la couche neigeuse Non disponible.
7:45 AM 6:16 PM
Lune montante, 22% visible
METAR KOXI 121755Z AUTO 30015KT 4SM BKN018 OVC026 M05/M09 A3011 RMK AO1
Pression 30.11 pouce
Visibilité 4.0 Miles terrestres
Nuages Nuageux 1800 ft
Couvert 2600 ft
Refroidissement éolien 9 ° F
Point de rosée 13 ° F
Humidité 67%
Précipitations 0.00 pouce
Profondeur de la couche neigeuse Non disponible.
7:45 AM 6:16 PM
Lune montante, 22% visible
METAR KOXI 121755Z AUTO 30015KT 4SM BKN018 OVC026 M05/M09 A3011 RMK AO1

10-Day Weather Forecast

Almanac

Astronomie

Feb. 12, 2016 Lever Coucher
Temps réel
Crépuscule civil
Crépuscule nautique
Crépuscule astronomique
Lune
Durée de lumière visible
Longueur du jour
Tomorrow will be .
, % of the Moon is Illuminated

Extrêmes aujourd'hui

State Highs State Lows

Community

WunderPhotos

Upload Photos

1,892,357 Photos téléchargées !

WunderBlog® & News

Nearby

Qualité de l'air

  Qualité de l'air Indice de la qualité de l'air Polluant
Not available.

Épaisseur de neige

Station Depth Altitude

Activité sismique

Ville Distance Mag. Time & Date
Minimum magnitude displayed is 2.5.

Températures des eaux côtières

Lieu Température

Stations

Stations météo à proximité

Emplacement de la station Température Refroidissement éolien Point de rosée Humidité Vent Precip. Alt. Mise à jour Type
                   

Watches & Warnings

There are currently no watches in effect.